Flight Track Log - Related Links

Times and Time Zones

All times are in EDT time to prevent confusion due to time zone crossing. See the JBU1475 flight status page for this flight to view local times or setup timezone preferences in your user account.

Time Position Orientation Groundspeed Altitude Reporting Facility
EDT Latitude Longitude Course Direction KTS MPH feet Rate Location/Type
Thu 08:12:25 PM 42.3500 -71.0167 300° West 168 193 800  Level KA90
Thu 08:13:25 PM 42.3000 -70.9667 144° Southeast 236 272 1,900 1,670 Climbing KA90
Thu 08:14:20 PM 42.3144 -70.8733 78° East 292 336 4,000 2,400 Climbing Boston Center
Thu 08:15:00 PM 42.5887 -70.8552 308° West  Level FlightAware Approximate
Thu 08:15:20 PM 42.3464 -70.7686 68° East 292 336 6,500  Level Boston Center
Thu 08:16:00 PM 42.6549 -70.9849 300° West  Level FlightAware Approximate
Thu 08:16:20 PM 42.4167 -70.7247 25° Northeast 320 368 9,100  Level Boston Center
Thu 08:17:00 PM 42.7122 -71.1227 300° West  Level FlightAware Approximate
Thu 08:17:20 PM 42.4981 -70.7419 351° North 303 349 10,700  Level Boston Center
Thu 08:18:20 PM 42.5639 -70.8219 318° Northwest 293 337 11,600 1,500 Climbing Boston Center
Thu 08:19:20 PM 42.6175 -70.9364 303° West 321 369 13,700 1,900 Climbing Boston Center
Thu 08:20:20 PM 42.6689 -71.0422 303° West 364 419 15,400 1,600 Climbing Boston Center
Thu 08:21:20 PM 42.7289 -71.1711 302° West 379 436 16,900 1,400 Climbing Boston Center
Thu 08:22:20 PM 42.7800 -71.2861 301° West 384 442 18,200 1,400 Climbing Boston Center
Thu 08:23:20 PM 42.8003 -71.4469 280° West 381 438 19,700 1,550 Climbing Boston Center
Thu 08:24:20 PM 42.8142 -71.5911 278° West 392 451 21,300 1,250 Climbing Boston Center
Thu 08:25:20 PM 42.8256 -71.7381 276° West 392 451 22,200 900 Climbing Boston Center
Thu 08:26:20 PM 42.8408 -71.8908 278° West 392 451 23,100 1,000 Climbing Boston Center
Thu 08:27:20 PM 42.8561 -72.0436 278° West 403 464 24,200 950 Climbing Boston Center
Thu 08:28:20 PM 42.8692 -72.1994 277° West 414 476 25,000 850 Climbing Boston Center
Thu 08:29:20 PM 42.8881 -72.3581 279° West 414 476 25,900 800 Climbing Boston Center
Thu 08:30:20 PM 42.9028 -72.5167 277° West 426 490 26,600 800 Climbing Boston Center
Thu 08:31:20 PM 42.9108 -72.6611 274° West 426 490 27,500 800 Climbing Boston Center
Thu 08:32:20 PM 42.9228 -72.8256 276° West 431 496 28,200 800 Climbing Boston Center
Thu 08:33:20 PM 42.9408 -73.0100 278° West 442 509 29,100 900 Climbing Boston Center
Thu 08:34:20 PM 42.9544 -73.1633 277° West 450 518 30,000 900 Climbing Boston Center
Thu 08:35:20 PM 42.9681 -73.3253 277° West 445 512 30,900 900 Climbing Boston Center
Thu 08:36:20 PM 42.9769 -73.5014 274° West 431 496 31,800 800 Climbing Boston Center
Thu 08:37:20 PM 42.9897 -73.6664 276° West 431 496 32,500 800 Climbing Boston Center
Thu 08:38:20 PM 43.0025 -73.8283 276° West 436 502 33,400 700 Climbing Boston Center
Thu 08:39:20 PM 43.0172 -73.9906 277° West 436 502 33,900 300 Climbing Boston Center
Thu 08:40:20 PM 43.0275 -74.1500 275° West 431 496 34,000 45 Climbing Boston Center
Thu 08:41:32 PM 43.0394 -74.3122 276° West 431 496 34,000  Level Boston Center
Thu 08:42:32 PM 43.0547 -74.5058 276° West 436 502 34,000  Level Boston Center
Thu 08:43:32 PM 43.0664 -74.6739 275° West 442 509 34,000  Level Boston Center
Thu 08:44:32 PM 43.0753 -74.8419 274° West 442 509 34,000 -50 Level Boston Center
Thu 08:45:32 PM 43.0864 -75.0072 275° West 442 509 33,900 -50 Descending Boston Center
Thu 08:46:32 PM 43.0953 -75.1556 275° West 442 509 33,900  Level Boston Center
Thu 08:47:32 PM 43.1039 -75.3239 274° West 442 509 33,900 50 Level Boston Center
Thu 08:48:32 PM 43.1161 -75.4894 276° West 442 509 34,000  Climbing Boston Center
Thu 08:49:32 PM 43.1283 -75.6550 276° West 442 509 33,900  Descending Boston Center
Thu 08:50:32 PM 43.1381 -75.8178 275° West 442 509 34,000 50 Climbing Boston Center
Thu 08:51:32 PM 43.1478 -75.9833 275° West 442 509 34,000  Level Boston Center
Thu 08:53:31 PM 43.1522 -76.3056 271° West 427 491 34,000  Level Cleveland Center
Thu 08:54:31 PM 43.1394 -76.4686 264° West 427 491 34,000  Level Cleveland Center
Thu 08:55:31 PM 43.1261 -76.6261 263° West 427 491 34,000  Level Cleveland Center
Thu 08:56:31 PM 43.1133 -76.8061 265° West 427 491 34,000  Level Cleveland Center
Thu 08:57:31 PM 43.1269 -76.9675 277° West 427 491 34,000  Level Cleveland Center
Thu 08:58:31 PM 43.1403 -77.1289 277° West 427 491 34,000  Level Cleveland Center
Thu 08:59:31 PM 43.1511 -77.2906 275° West 427 491 34,000  Level Cleveland Center
Thu 09:00:31 PM 43.1619 -77.4494 275° West 427 491 34,000  Level Cleveland Center
Thu 09:01:31 PM 43.1703 -77.6114 274° West 427 491 34,000  Level Cleveland Center
Thu 09:02:31 PM 43.1806 -77.7703 275° West 427 491 34,000  Level Cleveland Center
Thu 09:03:31 PM 43.1903 -77.9208 275° West 427 491 34,000  Level Cleveland Center
Thu 09:04:31 PM 43.2000 -78.0800 275° West 427 491 34,000  Level Cleveland Center
Thu 09:05:31 PM 43.2097 -78.2389 275° West 427 491 34,000  Level Cleveland Center
Thu 09:06:31 PM 43.2211 -78.4008 276° West 427 491 34,000  Level Cleveland Center
Thu 09:07:31 PM 43.2303 -78.5603 275° West 422 486 34,000  Level Cleveland Center
Thu 09:08:31 PM 43.2372 -78.7194 273° West 422 486 34,000  Level Cleveland Center
Thu 09:09:31 PM 43.2481 -78.8789 275° West 422 486 34,000  Level Cleveland Center
Thu 09:10:08 PM 43.2500 -78.9667 272° West 420 483 34,000  Level Toronto Center
Thu 09:11:08 PM 43.2500 -79.1333 270° West 420 483 34,000  Level Toronto Center
Thu 09:12:08 PM 43.2667 -79.2833 279° West 420 483 34,000  Level Toronto Center
Thu 09:13:08 PM 43.2667 -79.4500 270° West 420 483 34,000  Level Toronto Center
Thu 09:14:08 PM 43.2667 -79.6167 270° West 420 483 34,000  Level Toronto Center
Thu 09:15:08 PM 43.2833 -79.7667 279° West 420 483 34,000  Level Toronto Center
Thu 09:16:08 PM 43.2833 -79.9333 270° West 420 483 34,000  Level Toronto Center
Thu 09:17:08 PM 43.3000 -80.0833 279° West 420 483 34,000  Level Toronto Center
Thu 09:18:08 PM 43.3000 -80.2500 270° West 420 483 34,000  Level Toronto Center
Thu 09:19:08 PM 43.3167 -80.4167 278° West 420 483 34,000  Level Toronto Center
Thu 09:20:08 PM 43.3167 -80.5667 270° West 420 483 34,000  Level Toronto Center
Thu 09:21:08 PM 43.3167 -80.7333 270° West 420 483 34,000  Level Toronto Center
Thu 09:22:08 PM 43.3167 -80.9000 270° West 420 483 34,000  Level Toronto Center
Thu 09:23:08 PM 43.3167 -81.0333 270° West 420 483 34,000  Level Toronto Center
Thu 09:24:08 PM 43.3333 -81.2167 277° West 420 483 34,000  Level Toronto Center
Thu 09:25:08 PM 43.3333 -81.3500 270° West 420 483 34,000  Level Toronto Center
Thu 09:26:08 PM 43.3500 -81.5333 277° West 420 483 34,000  Level Toronto Center
Thu 09:27:08 PM 43.3500 -81.6667 270° West 420 483 34,000  Level Toronto Center
Thu 09:28:08 PM 43.3667 -81.8333 278° West 420 483 34,000  Level Toronto Center
Thu 09:29:08 PM 43.3500 -82.0000 262° West 420 483 34,000  Level Toronto Center
Thu 09:30:08 PM 43.3500 -82.1500 270° West 420 483 34,000  Level Toronto Center
Thu 09:31:08 PM 43.3667 -82.3167 278° West 420 483 34,000  Level Toronto Center
Thu 09:31:55 PM 43.3786 -82.4569 277° West 422 486 34,000  Level Cleveland Center
Thu 09:32:55 PM 43.3822 -82.6111 272° West 417 480 34,000  Level Cleveland Center
Thu 09:33:55 PM 43.3836 -82.7711 271° West 417 480 34,000  Level Cleveland Center
Thu 09:34:55 PM 43.3886 -82.9314 273° West 417 480 34,000  Level Cleveland Center
Thu 09:35:55 PM 43.3894 -83.0942 270° West 423 487 34,000  Level Cleveland Center
Thu 09:36:55 PM 43.3903 -83.2486 270° West 423 487 34,000  Level Cleveland Center
Thu 09:37:55 PM 43.3947 -83.4086 272° West 423 487 34,000  Level Cleveland Center
Thu 09:38:35 PM 43.3947 -83.4986 270° West 418 481 34,000  Level Minneapolis Center
Thu 09:39:08 PM 43.3833 -83.5833 260° West 420 483 34,000  Level Toronto Center
Thu 09:40:08 PM 43.3833 -83.7667 270° West 420 483 34,000  Level Toronto Center
Thu 09:40:55 PM 43.3967 -83.8861 279° West 418 481 34,000  Level Cleveland Center
Thu 09:41:37 PM 43.4003 -83.9753 273° West 417 480 34,000  Level Minneapolis Center
Thu 09:42:38 PM 43.4014 -84.1333 271° West 415 478 34,000  Level Minneapolis Center
Thu 09:43:39 PM 43.4022 -84.2931 270° West 417 480 34,000  Level Minneapolis Center
Thu 09:44:40 PM 43.4036 -84.4519 271° West 418 481 34,000  Level Minneapolis Center
Thu 09:45:53 PM 43.4042 -84.6097 270° West 416 479 34,000  Level Minneapolis Center
Thu 09:47:06 PM 43.4044 -84.8325 270° West 416 479 34,000  Level Minneapolis Center
Thu 09:48:07 PM 43.4050 -85.0203 270° West 413 475 34,000  Level Minneapolis Center
Thu 09:49:07 PM 43.4044 -85.1786 270° West 413 475 34,000  Level Minneapolis Center
Thu 09:50:08 PM 43.4044 -85.3358 270° West 414 476 34,000  Level Minneapolis Center
Thu 09:51:09 PM 43.4042 -85.4925 270° West 414 476 34,000  Level Minneapolis Center
Thu 09:52:10 PM 43.4036 -85.6475 270° West 410 472 34,000  Level Minneapolis Center
Thu 09:53:11 PM 43.4017 -85.8042 269° West 412 474 34,000  Level Minneapolis Center
Thu 09:54:11 PM 43.4008 -85.9600 270° West 413 475 34,000  Level Minneapolis Center
Thu 09:55:12 PM 43.3997 -86.1158 269° West 413 475 34,000  Level Minneapolis Center
Thu 09:56:13 PM 43.3986 -86.2397 269° West 412 474 34,000  Level Minneapolis Center
Thu 09:57:14 PM 43.3950 -86.4553 269° West 410 472 34,000  Level Minneapolis Center
Thu 09:58:15 PM 43.3933 -86.6069 269° West 404 465 34,000  Level Minneapolis Center
Thu 09:59:15 PM 43.3906 -86.7594 269° West 402 463 34,000  Level Minneapolis Center
Thu 10:00:17 PM 43.3883 -86.9133 269° West 404 465 34,000  Level Minneapolis Center
Thu 10:01:18 PM 43.3853 -87.0656 268° West 401 461 34,000  Level Minneapolis Center
Thu 10:02:19 PM 43.3825 -87.2203 269° West 406 467 34,000  Level Minneapolis Center
Thu 10:03:19 PM 43.3783 -87.3944 268° West 408 470 34,000  Level Minneapolis Center
Thu 10:04:20 PM 43.3747 -87.5506 268° West 408 470 34,000  Level Minneapolis Center
Thu 10:05:21 PM 43.3711 -87.7075 268° West 409 471 34,000  Level Minneapolis Center
Thu 10:06:22 PM 43.3672 -87.8633 268° West 406 467 34,000  Level Minneapolis Center
Thu 10:07:23 PM 43.3631 -88.0197 268° West 407 468 34,000  Level Minneapolis Center
Thu 10:08:23 PM 43.3581 -88.1769 268° West 409 471 34,000  Level Minneapolis Center
Thu 10:09:24 PM 43.3522 -88.3353 267° West 411 473 34,000  Level Minneapolis Center
Thu 10:10:25 PM 43.3461 -88.4989 267° West 414 476 34,000  Level Minneapolis Center
Thu 10:11:26 PM 43.3425 -88.6622 268° West 418 481 34,000  Level Minneapolis Center
Thu 10:12:27 PM 43.3383 -88.8197 268° West 413 475 34,000  Level Minneapolis Center
Thu 10:13:27 PM 43.3328 -88.9775 267° West 412 474 34,000  Level Minneapolis Center
Thu 10:14:28 PM 43.3278 -89.1344 268° West 412 474 34,000  Level Minneapolis Center
Thu 10:15:29 PM 43.3217 -89.2928 267° West 414 476 34,000  Level Minneapolis Center
Thu 10:16:30 PM 43.3144 -89.4492 266° West 411 473 34,000  Level Minneapolis Center
Thu 10:17:31 PM 43.3083 -89.6031 267° West 407 468 34,000  Level Minneapolis Center
Thu 10:18:31 PM 43.3017 -89.7600 267° West 409 471 34,000  Level Minneapolis Center
Thu 10:19:32 PM 43.2942 -89.9156 266° West 409 471 34,000  Level Minneapolis Center
Thu 10:20:33 PM 43.2869 -90.0719 266° West 410 472 34,000  Level Minneapolis Center
Thu 10:21:34 PM 43.2794 -90.2306 266° West 416 479 34,000  Level Minneapolis Center
Thu 10:22:34 PM 43.2733 -90.3833 267° West 419 482 34,000  Level Minneapolis Center
Thu 10:23:35 PM 43.2653 -90.5419 266° West 420 483 34,000  Level Minneapolis Center
Thu 10:24:36 PM 43.2547 -90.7356 266° West 428 493 34,000  Level Minneapolis Center
Thu 10:25:37 PM 43.2478 -90.9028 267° West 439 505 34,000  Level Minneapolis Center
Thu 10:26:38 PM 43.2389 -91.0719 266° West 449 517 34,000  Level Minneapolis Center
Thu 10:27:38 PM 43.2306 -91.2436 266° West 456 525 34,000  Level Minneapolis Center
Thu 10:28:39 PM 43.2214 -91.4178 266° West 463 533 34,000 49 Level Minneapolis Center
Thu 10:29:40 PM 43.2111 -91.5939 265° West 469 540 34,100  Climbing Minneapolis Center
Thu 10:30:40 PM 43.2025 -91.7342 265° West 471 542 34,000 -50 Descending Minneapolis Center
Thu 10:31:41 PM 43.1881 -91.9453 265° West 472 543 34,000  Level Minneapolis Center
Thu 10:32:42 PM 43.1750 -92.1581 265° West 475 547 34,000  Level Minneapolis Center
Thu 10:33:54 PM 43.1631 -92.3397 265° West 483 556 34,000 45 Level Minneapolis Center
Thu 10:34:55 PM 43.1481 -92.5600 265° West 490 564 34,100  Climbing Minneapolis Center
Thu 10:35:56 PM 43.1347 -92.7414 264° West 488 562 34,000 -50 Descending Minneapolis Center
Thu 10:36:56 PM 43.1233 -92.9217 265° West 483 556 34,000  Level Minneapolis Center
Thu 10:37:57 PM 43.1103 -93.1019 264° West 482 555 34,000  Level Minneapolis Center
Thu 10:39:10 PM 43.0969 -93.2797 264° West 477 549 34,000  Level Minneapolis Center
Thu 10:40:11 PM 43.0803 -93.4939 264° West 477 549 34,000  Level Minneapolis Center
Thu 10:41:11 PM 43.0622 -93.6739 262° West 481 554 34,000  Level Minneapolis Center
Thu 10:42:12 PM 43.0444 -93.8539 262° West 481 554 34,000  Level Minneapolis Center
Thu 10:43:13 PM 43.0233 -94.0700 262° West 482 555 34,000  Level Minneapolis Center
Thu 10:44:13 PM 43.0056 -94.2497 262° West 481 554 34,000  Level Minneapolis Center
Thu 10:45:14 PM 42.9869 -94.4272 262° West 480 552 34,000  Level Minneapolis Center
Thu 10:46:15 PM 42.9706 -94.6028 263° West 474 545 34,000  Level Minneapolis Center
Thu 10:47:15 PM 42.9561 -94.7389 262° West 469 540 34,000  Level Minneapolis Center
Thu 10:48:16 PM 42.9333 -94.9500 262° West 468 539 34,000  Level Minneapolis Center
Thu 10:49:16 PM 42.9144 -95.1247 262° West 467 537 34,000  Level Minneapolis Center
Thu 10:50:17 PM 42.8958 -95.2994 262° West 466 536 34,000  Level Minneapolis Center
Thu 10:51:18 PM 42.8806 -95.4394 262° West 466 536 34,000  Level Minneapolis Center
Thu 10:52:18 PM 42.8567 -95.6486 261° West 465 535 34,000  Level Minneapolis Center
Thu 10:53:19 PM 42.8372 -95.8222 261° West 464 534 34,000  Level Minneapolis Center
Thu 10:54:20 PM 42.8169 -95.9989 261° West 468 539 34,000 50 Level Minneapolis Center
Thu 10:55:20 PM 42.7956 -96.1758 261° West 471 542 34,100  Climbing Minneapolis Center
Thu 10:56:21 PM 42.7750 -96.3522 261° West 471 542 34,000 -50 Descending Minneapolis Center
Thu 10:57:21 PM 42.7489 -96.5589 260° West 465 535 34,000  Level Minneapolis Center
Thu 10:58:22 PM 42.7275 -96.7325 261° West 466 536 34,000  Level Minneapolis Center
Thu 10:59:23 PM 42.7075 -96.9056 261° West 465 535 34,000  Level Minneapolis Center
Thu 11:00:23 PM 42.6858 -97.0764 260° West 460 529 34,000  Level Minneapolis Center
Thu 11:01:24 PM 42.6647 -97.2431 260° West 466 536 34,000  Level Minneapolis Center
Thu 11:02:24 PM 42.6425 -97.4150 260° West 467 537 34,000 50 Level Minneapolis Center
Thu 11:03:25 PM 42.6203 -97.5889 260° West 467 537 34,100 -49 Climbing Minneapolis Center
Thu 11:04:26 PM 42.5975 -97.7594 260° West 464 534 33,900 -50 Descending Minneapolis Center
Thu 11:05:26 PM 42.5736 -97.9328 259° West 465 535 34,000 50 Climbing Minneapolis Center
Thu 11:06:27 PM 42.5500 -98.1031 259° West 462 532 34,000  Level Minneapolis Center
Thu 11:07:27 PM 42.5278 -98.2753 260° West 463 533 34,000  Level Minneapolis Center
Thu 11:08:28 PM 42.5036 -98.4456 259° West 462 532 34,000  Level Minneapolis Center
Thu 11:09:28 PM 42.4797 -98.6181 259° West 465 535 34,000  Level Minneapolis Center
Thu 11:10:29 PM 42.4536 -98.7894 258° West 466 536 34,000  Level Minneapolis Center
Thu 11:11:30 PM 42.4219 -98.9614 256° West 470 541 34,000  Level Minneapolis Center
Thu 11:12:30 PM 42.3914 -99.1328 256° West 471 542 34,000  Level Minneapolis Center
Thu 11:13:31 PM 42.3592 -99.3028 256° West 469 540 34,000  Level Minneapolis Center
Thu 11:14:31 PM 42.3222 -99.5056 256° West 466 536 34,000  Level Minneapolis Center
Thu 11:15:32 PM 42.2908 -99.6789 256° West 470 541 34,000 50 Level Minneapolis Center
Thu 11:16:32 PM 42.2592 -99.8506 256° West 472 543 34,100 66 Climbing Minneapolis Center
Thu 11:17:03 PM 42.2472 -99.9097 255° West 479 551 34,100 -58 Level Denver Center
Thu 11:18:15 PM 42.2108 -100.1003 256° West 472 543 34,000 -45 Descending Denver Center
Thu 11:19:16 PM 42.1694 -100.3161 256° West 468 539 34,000  Level Denver Center
Thu 11:20:17 PM 42.1383 -100.4764 255° West 463 533 34,000  Level Denver Center
Thu 11:21:17 PM 42.1072 -100.6378 255° West 467 537 34,000  Level Denver Center
Thu 11:22:18 PM 42.0703 -100.8217 255° West 458 527 34,000  Level Denver Center
Thu 11:23:18 PM 42.0392 -100.9819 255° West 462 532 34,000  Level Denver Center
Thu 11:24:19 PM 42.0069 -101.1419 255° West 464 534 34,000  Level Denver Center
Thu 11:25:19 PM 41.9692 -101.3267 255° West 461 531 34,000  Level Denver Center
Thu 11:26:20 PM 41.9369 -101.4856 255° West 461 531 34,000  Level Denver Center
Thu 11:27:20 PM 41.9047 -101.6422 255° West 457 526 34,000  Level Denver Center
Thu 11:28:21 PM 41.8669 -101.8256 255° West 458 527 34,000  Level Denver Center
Thu 11:29:33 PM 41.8342 -101.9828 254° West 459 528 34,000  Level Denver Center
Thu 11:30:34 PM 41.7897 -102.1917 254° West 458 527 34,000  Level Denver Center
Thu 11:31:34 PM 41.7553 -102.3525 254° West 455 524 34,000  Level Denver Center
Thu 11:32:35 PM 41.7239 -102.5022 254° West 454 522 34,000  Level Denver Center
Thu 11:33:35 PM 41.6889 -102.6608 254° West 450 518 34,000  Level Denver Center
Thu 11:34:36 PM 41.6497 -102.8419 254° West 452 520 34,000  Level Denver Center
Thu 11:35:36 PM 41.6161 -102.9981 254° West 457 526 34,000  Level Denver Center
Thu 11:36:37 PM 41.5825 -103.1536 254° West 456 525 34,000  Level Denver Center
Thu 11:37:37 PM 41.5472 -103.3103 253° West 459 528 34,000  Level Denver Center
Thu 11:38:38 PM 41.5061 -103.4925 253° West 459 528 34,000  Level Denver Center
Thu 11:39:38 PM 41.4706 -103.6486 253° West 460 529 34,000  Level Denver Center
Thu 11:40:39 PM 41.4353 -103.8047 253° West 460 529 34,000  Level Denver Center
Thu 11:41:39 PM 41.3936 -103.9856 253° West 457 526 34,000  Level Denver Center
Thu 11:42:40 PM 41.3586 -104.1392 253° West 454 522 34,000  Level Denver Center
Thu 11:43:40 PM 41.3233 -104.2906 253° West 448 516 34,000 500 Level Denver Center
Thu 11:44:40 PM 41.2825 -104.4667 253° West 445 512 35,000 942 Climbing Denver Center
Thu 11:45:41 PM 41.2478 -104.6161 253° West 442 509 35,900 496 Climbing Denver Center
Thu 11:46:41 PM 41.2122 -104.7642 252° West 440 506 36,000 50 Climbing Denver Center
Thu 11:47:42 PM 41.1850 -104.9158 257° West 439 505 36,000  Level Denver Center
Thu 11:48:42 PM 41.1539 -105.0964 257° West 445 512 36,000  Level Denver Center
Thu 11:49:42 PM 41.1269 -105.2503 257° West 447 514 36,000  Level Denver Center
Thu 11:50:43 PM 41.0986 -105.4028 256° West 446 513 36,000 50 Level Denver Center
Thu 11:51:43 PM 41.0672 -105.5828 257° West 448 516 36,100  Climbing Denver Center
Thu 11:52:44 PM 41.0397 -105.7358 257° West 446 513 36,000 -50 Descending Denver Center
Thu 11:53:44 PM 41.0128 -105.8858 257° West 442 509 36,000  Level Denver Center
Thu 11:54:45 PM 40.9839 -106.0411 256° West 439 505 36,000  Level Denver Center
Thu 11:55:45 PM 40.9533 -106.2075 256° West 437 503 36,000  Level Denver Center
Thu 11:56:45 PM 40.9247 -106.3561 256° West 436 502 36,000  Level Denver Center
Thu 11:57:46 PM 40.8969 -106.5078 256° West 441 507 36,000 -198 Level Denver Center
Thu 11:58:46 PM 40.8642 -106.6853 256° West 445 512 35,600 -650 Descending Denver Center
Thu 11:59:46 PM 40.8353 -106.8342 256° West 438 504 34,700 -793 Descending Denver Center
Fri 12:00:47 AM 40.8061 -106.9867 256° West 446 513 34,000 -347 Descending Denver Center
Fri 12:01:47 AM 40.7711 -107.1625 255° West 446 513 34,000  Level Denver Center
Fri 12:02:48 AM 40.7417 -107.3117 255° West 445 512 34,000 50 Level Denver Center
Fri 12:03:48 AM 40.7117 -107.4636 255° West 448 516 34,100  Climbing Denver Center
Fri 12:04:48 AM 40.6772 -107.6406 256° West 448 516 34,000 -50 Descending Denver Center
Fri 12:05:49 AM 40.6478 -107.7894 255° West 442 509 34,000  Level Denver Center
Fri 12:06:49 AM 40.6167 -107.9394 255° West 444 511 34,000  Level Denver Center
Fri 12:07:49 AM 40.5814 -108.1133 255° West 443 510 34,000  Level Denver Center
Fri 12:08:50 AM 40.5503 -108.2639 255° West 446 513 34,000  Level Denver Center
Fri 12:09:50 AM 40.5200 -108.4119 255° West 442 509 34,000  Level Denver Center
Fri 12:10:50 AM 40.4889 -108.5619 255° West 443 510 34,000  Level Denver Center
Fri 12:11:51 AM 40.4522 -108.7358 255° West 445 512 34,000  Level Denver Center
Fri 12:12:51 AM 40.4211 -108.8825 254° West 441 507 34,000  Level Denver Center
Fri 12:13:51 AM 40.3908 -109.0264 255° West 433 498 34,000  Level Denver Center
Fri 12:14:52 AM 40.3539 -109.1956 254° West 433 498 34,000  Level Denver Center
Fri 12:15:52 AM 40.3225 -109.3400 254° West 433 498 34,000  Level Denver Center
Fri 12:17:13 AM 40.2808 -109.5336 254° West 433 498 34,000  Level Salt Lake Center
Fri 12:18:13 AM 40.2442 -109.7022 254° West 432 497 34,000  Level Salt Lake Center
Fri 12:19:14 AM 40.2119 -109.8464 254° West 432 497 34,000  Level Salt Lake Center
Fri 12:20:14 AM 40.1794 -109.9889 253° West 431 496 34,000  Level Salt Lake Center
Fri 12:21:14 AM 40.1414 -110.1542 253° West 426 490 34,000  Level Salt Lake Center
Fri 12:22:15 AM 40.1303 -110.2997 264° West 423 487 34,000  Level Salt Lake Center
Fri 12:23:15 AM 40.1264 -110.4472 268° West 425 489 34,000  Level Salt Lake Center
Fri 12:24:15 AM 40.1194 -110.6186 267° West 423 487 34,000  Level Salt Lake Center
Fri 12:25:16 AM 40.1125 -110.7644 266° West 423 487 34,000  Level Salt Lake Center
Fri 12:26:16 AM 40.1072 -110.9122 267° West 425 489 34,000  Level Salt Lake Center
Fri 12:27:16 AM 40.1033 -111.0611 268° West 426 490 34,000  Level Salt Lake Center
Fri 12:28:17 AM 40.0989 -111.2147 268° West 424 488 34,000  Level Salt Lake Center
Fri 12:29:17 AM 40.0925 -111.3694 267° West 425 489 34,000  Level Salt Lake Center
Fri 12:30:18 AM 40.0900 -111.5228 269° West 423 487 34,000 99 Level Salt Lake Center
Fri 12:31:18 AM 40.0983 -111.6786 274° West 429 494 34,200 700 Climbing Salt Lake Center
Fri 12:32:18 AM 40.1067 -111.8364 274° West 441 507 35,400 893 Climbing Salt Lake Center
Fri 12:33:19 AM 40.1150 -111.9914 274° West 425 489 36,000 298 Climbing Salt Lake Center
Fri 12:34:19 AM 40.1244 -112.1433 275° West 419 482 36,000  Level Salt Lake Center
Fri 12:35:19 AM 40.1342 -112.2944 275° West 417 480 36,000  Level Salt Lake Center
Fri 12:36:19 AM 40.1386 -112.4453 272° West 417 480 36,000  Level Salt Lake Center
Fri 12:37:20 AM 40.1381 -112.5967 270° West 415 478 36,000  Level Salt Lake Center
Fri 12:38:20 AM 40.1394 -112.7500 271° West 422 486 36,000  Level Salt Lake Center
Fri 12:39:20 AM 40.1119 -112.8969 256° West 417 480 36,000  Level Salt Lake Center
Fri 12:40:21 AM 40.0881 -113.0469 258° West 421 484 36,000  Level Salt Lake Center
Fri 12:41:21 AM 40.0678 -113.1942 260° West 415 478 36,000  Level Salt Lake Center
Fri 12:42:21 AM 40.0461 -113.3458 259° West 423 487 36,000  Level Salt Lake Center
Fri 12:43:22 AM 40.0253 -113.4992 260° West 429 494 36,000  Level Salt Lake Center
Fri 12:44:22 AM 40.0061 -113.6525 261° West 429 494 36,000  Level Salt Lake Center
Fri 12:45:22 AM 39.9853 -113.8075 260° West 433 498 36,000 50 Level Salt Lake Center
Fri 12:46:23 AM 39.9650 -113.9600 260° West 430 495 36,100  Climbing Salt Lake Center
Fri 12:47:23 AM 39.9375 -114.1417 259° West 428 493 36,000 -50 Descending Salt Lake Center
Fri 12:48:23 AM 39.8997 -114.2869 251° West 426 490 36,000  Level Salt Lake Center
Fri 12:49:23 AM 39.8500 -114.4283 245° Southwest 429 494 36,000  Level Salt Lake Center
Fri 12:50:24 AM 39.8031 -114.5706 247° West 429 494 36,000 50 Level Salt Lake Center
Fri 12:51:24 AM 39.7558 -114.7131 247° West 430 495 36,100  Climbing Salt Lake Center
Fri 12:52:24 AM 39.7103 -114.8447 246° West 426 490 36,000 -50 Descending Salt Lake Center
Fri 12:53:25 AM 39.6656 -114.9794 247° West 425 489 36,000  Level Salt Lake Center
Fri 12:54:25 AM 39.6117 -115.1347 246° West 423 487 36,000  Level Salt Lake Center
Fri 12:55:25 AM 39.5661 -115.2658 246° West 418 481 36,000  Level Salt Lake Center
Fri 12:56:26 AM 39.5200 -115.3989 246° West 422 486 36,000  Level Salt Lake Center
Fri 12:57:26 AM 39.4719 -115.5331 245° Southwest 426 490 36,000  Level Salt Lake Center
Fri 12:58:26 AM 39.4189 -115.6881 246° West 421 484 36,000  Level Salt Lake Center
Fri 12:59:27 AM 39.3717 -115.8211 245° Southwest 423 487 36,000  Level Salt Lake Center
Fri 01:00:27 AM 39.3244 -115.9556 246° West 427 491 36,000  Level Salt Lake Center
Fri 01:01:27 AM 39.2769 -116.0889 245° Southwest 427 491 36,000  Level Salt Lake Center
Fri 01:02:28 AM 39.2219 -116.2439 245° Southwest 425 489 36,000  Level Salt Lake Center
Fri 01:03:28 AM 39.1750 -116.3761 245° Southwest 423 487 36,000  Level Salt Lake Center
Fri 01:04:28 AM 39.1275 -116.5069 245° Southwest 420 483 36,000  Level Salt Lake Center
Fri 01:05:28 AM 39.0811 -116.6364 245° Southwest 423 487 36,000 50 Level Salt Lake Center
Fri 01:06:29 AM 39.0211 -116.8022 245° Southwest 427 491 36,100 51 Climbing Salt Lake Center
Fri 01:07:26 AM 38.9806 -116.9144 245° Southwest 431 496 36,100 -51 Level Oakland Center
Fri 01:08:27 AM 38.9272 -117.0594 245° Southwest 427 491 36,000 -50 Descending Oakland Center
Fri 01:09:27 AM 38.8792 -117.1897 245° Southwest 430 495 36,000  Level Oakland Center
Fri 01:10:28 AM 38.8275 -117.3297 245° Southwest 435 501 36,000 50 Level Oakland Center
Fri 01:11:28 AM 38.7756 -117.4692 244° Southwest 436 502 36,100  Climbing Oakland Center
Fri 01:12:28 AM 38.7256 -117.6056 245° Southwest 428 493 36,000 -50 Descending Oakland Center
Fri 01:13:28 AM 38.6692 -117.7539 244° Southwest 425 489 36,000  Level Oakland Center
Fri 01:14:29 AM 38.6267 -117.9108 251° West 429 494 36,000  Level Oakland Center
Fri 01:15:29 AM 38.5894 -118.0528 251° West 425 489 36,000  Level Oakland Center
Fri 01:16:29 AM 38.5556 -118.1831 252° West 422 486 36,000  Level Oakland Center
Fri 01:17:29 AM 38.5169 -118.3267 251° West 424 488 36,000  Level Oakland Center
Fri 01:18:30 AM 38.4792 -118.4692 251° West 424 488 36,000  Level Oakland Center
Fri 01:19:30 AM 38.4406 -118.6125 251° West 425 489 36,000  Level Oakland Center
Fri 01:20:30 AM 38.4011 -118.7567 251° West 428 493 36,000  Level Oakland Center
Fri 01:21:31 AM 38.3625 -118.9014 251° West 430 495 36,000 50 Level Oakland Center
Fri 01:22:31 AM 38.3217 -119.0478 250° West 435 501 36,100  Climbing Oakland Center
Fri 01:23:31 AM 38.2819 -119.1919 251° West 433 498 36,000 -50 Descending Oakland Center
Fri 01:24:31 AM 38.2431 -119.3344 251° West 429 494 36,000  Level Oakland Center
Fri 01:25:31 AM 38.2044 -119.4775 251° West 428 493 36,000 -149 Level Oakland Center
Fri 01:26:32 AM 38.1631 -119.6214 250° West 430 495 35,700 -645 Descending Oakland Center
Fri 01:27:32 AM 38.1239 -119.7658 251° West 432 497 34,700 -1,000 Descending Oakland Center
Fri 01:28:32 AM 38.0831 -119.9122 251° West 437 503 33,700 -950 Descending Oakland Center
Fri 01:29:32 AM 38.0406 -120.0600 250° West 443 510 32,800 -1,240 Descending Oakland Center
Fri 01:30:33 AM 37.9992 -120.2069 250° West 442 509 31,200 -1,934 Descending Oakland Center
Fri 01:31:33 AM 37.9575 -120.3531 250° West 439 505 28,900 -2,250 Descending Oakland Center
Fri 01:32:33 AM 37.9153 -120.4936 249° West 428 493 26,700 -2,200 Descending Oakland Center
Fri 01:33:33 AM 37.8756 -120.6317 250° West 418 481 24,500 -2,380 Descending Oakland Center
Fri 01:34:34 AM 37.8583 -120.7733 261° West 405 466 21,900 -2,529 Descending Oakland Center
Fri 01:35:34 AM 37.8506 -120.9167 266° West 407 468 19,400 -2,740 Descending Oakland Center
Fri 01:36:41 AM 37.8333 -121.0833 263° West 383 441 16,100 -2,693 Descending Northern Cal TRACON
Fri 01:37:41 AM 37.8167 -121.2000 260° West 416 479 13,700 -2,300 Descending Northern Cal TRACON
Fri 01:38:41 AM 37.7833 -121.3167 250° West 341 392 11,500 -1,600 Descending Northern Cal TRACON
Fri 01:39:41 AM 37.7500 -121.4167 247° West 303 349 10,500 -950 Descending Northern Cal TRACON
Fri 01:40:41 AM 37.7167 -121.5167 247° West 286 329 9,600 -1,200 Descending Northern Cal TRACON
Fri 01:41:41 AM 37.6833 -121.6000 243° Southwest 284 327 8,100 -1,381 Descending Northern Cal TRACON
Fri 01:42:47 AM 37.6667 -121.7167 260° West 270 311 6,700 -952 Descending Northern Cal TRACON
Fri 01:43:47 AM 37.6500 -121.8000 256° West 239 275 6,100 -700 Descending Northern Cal TRACON
Fri 01:44:47 AM 37.6333 -121.8667 252° West 215 247 5,300 -900 Descending Northern Cal TRACON
Fri 01:45:47 AM 37.6167 -121.9333 253° West 212 244 4,300 -900 Descending Northern Cal TRACON
Fri 01:46:47 AM 37.6000 -122.0000 253° West 189 217 3,500 -522 Descending Northern Cal TRACON
Fri 01:47:42 AM 37.6000 -122.0500 270° West 177 204 3,300 -700 Descending Northern Cal TRACON
Fri 01:48:47 AM 37.6333 -122.1000 310° West 165 190 2,100 -960 Descending Northern Cal TRACON
Fri 01:49:47 AM 37.6500 -122.1500 293° West 139 160 1,300 -694 Descending Northern Cal TRACON
Fri 01:50:48 AM 37.6833 -122.1833 322° Northwest 137 158 700 -590 Descending Northern Cal TRACON
Fri 01:54:00 AM 37.7167 -122.2167 270° West  Level FlightAware Approximate

Login

Don't have an account? Register now (free) for customized features, flight alerts, and more!